Whiteriver, Arizona
Current Conditions -  °F | °C
As of 9:35 PM on Saturday 22 Nov 2014 (Local Time) from KSOW Reporting Station
Clear Clear  
Wind Chill: 28°   Ceiling: Unl
Heat Index: 37°   Visibility: 10mi
Dew Point: 18°   Wind: 16mph
Humidity: 45%   Direction: 180°S
Pressure: 30.03"   Gusts: NA
Location:  33.84°N, 109.96°W
Report Text: KSOW 230435Z AUTO 18014KT 10SM CLR 03/M08 A3003 RMK AO2
Loading
Personal Weather Stations






























Interactive Weather Map New forecast layout! Learn more

10-Day Weather Forecast

Advertisements
Track Severe Weather on mobile